createdAt,value
2023-05-19T00:02:20.311Z,24.13
2023-05-19T00:04:47.823Z,24.15
2023-05-19T00:07:16.591Z,24.18
2023-05-19T00:09:43.593Z,24.17
2023-05-19T00:12:11.669Z,24.13
2023-05-19T00:14:38.719Z,24.11
2023-05-19T00:17:06.048Z,24.07
2023-05-19T00:19:33.469Z,24.04
2023-05-19T00:22:00.328Z,24.09
2023-05-19T00:24:27.454Z,23.99
2023-05-19T00:26:54.530Z,23.94
2023-05-19T00:29:21.740Z,23.95
2023-05-19T00:31:48.635Z,23.98
2023-05-19T00:34:15.575Z,23.98
2023-05-19T00:36:42.910Z,23.96
2023-05-19T00:39:09.778Z,23.96
2023-05-19T00:41:36.687Z,23.98
2023-05-19T00:44:03.836Z,24.04
2023-05-19T00:46:31.033Z,24.04
2023-05-19T00:48:58.468Z,24.02
2023-05-19T00:51:25.924Z,24.02
2023-05-19T00:53:53.001Z,24.04
2023-05-19T00:56:21.433Z,24.00
2023-05-19T00:58:50.377Z,24.00
2023-05-19T01:01:20.874Z,24.01
2023-05-19T01:03:47.811Z,23.99
2023-05-19T01:06:15.333Z,23.99
2023-05-19T01:08:43.341Z,24.01
2023-05-19T01:11:10.349Z,24.02
2023-05-19T01:13:40.310Z,24.02
2023-05-19T01:16:20.947Z,24.06
2023-05-19T01:19:01.464Z,24.01
2023-05-19T01:22:00.541Z,24.02
2023-05-19T01:24:31.788Z,24.09
2023-05-19T01:27:04.781Z,24.11
2023-05-19T01:29:37.984Z,24.11
2023-05-19T01:32:05.053Z,24.12
2023-05-19T01:34:33.762Z,24.14
2023-05-19T01:37:03.582Z,24.18
2023-05-19T01:39:30.811Z,24.20
2023-05-19T01:41:57.833Z,24.21
2023-05-19T01:44:24.865Z,24.24
2023-05-19T01:46:51.988Z,24.24
2023-05-19T01:49:19.336Z,24.20
2023-05-19T01:51:46.162Z,24.21
2023-05-19T01:54:13.082Z,24.22
2023-05-19T01:56:45.009Z,24.23
2023-05-19T01:59:20.311Z,24.26
2023-05-19T02:01:53.980Z,24.29
2023-05-19T02:04:29.885Z,24.27
2023-05-19T02:07:04.481Z,24.22
2023-05-19T02:09:50.143Z,24.17
2023-05-19T02:12:37.136Z,24.18
2023-05-19T02:15:10.250Z,24.16
2023-05-19T02:17:41.200Z,24.14
2023-05-19T02:20:10.159Z,24.07
2023-05-19T02:22:38.314Z,24.10
2023-05-19T02:25:07.951Z,24.11
2023-05-19T02:27:36.277Z,24.11
2023-05-19T02:30:04.247Z,24.14
2023-05-19T02:32:32.852Z,24.14
2023-05-19T02:35:00.091Z,24.14
2023-05-19T02:37:28.038Z,24.16
2023-05-19T02:39:55.084Z,24.16
2023-05-19T02:42:21.937Z,24.18
2023-05-19T02:44:49.182Z,24.19
2023-05-19T02:47:15.991Z,24.22
2023-05-19T02:49:43.663Z,24.21
2023-05-19T02:52:11.558Z,24.25
2023-05-19T02:54:39.280Z,24.25
2023-05-19T02:57:06.300Z,24.25
2023-05-19T02:59:33.299Z,24.24
2023-05-19T03:02:01.245Z,24.27
2023-05-19T03:04:29.315Z,24.29
2023-05-19T03:06:57.161Z,24.29
2023-05-19T03:09:24.338Z,24.30
2023-05-19T03:11:52.259Z,24.33
2023-05-19T03:14:23.224Z,24.30
2023-05-19T03:16:50.414Z,24.33
2023-05-19T03:19:17.925Z,24.38
2023-05-19T03:21:45.836Z,24.38
2023-05-19T03:24:13.219Z,24.41
2023-05-19T03:26:40.116Z,24.38
2023-05-19T03:29:07.664Z,24.40
2023-05-19T03:31:35.801Z,24.51
2023-05-19T03:34:03.724Z,24.56
2023-05-19T03:36:32.272Z,24.56
2023-05-19T03:39:00.302Z,24.59
2023-05-19T03:41:27.589Z,24.57
2023-05-19T03:43:54.925Z,24.53
2023-05-19T03:46:22.506Z,24.52
2023-05-19T03:48:55.624Z,24.50
2023-05-19T03:51:31.102Z,24.51
2023-05-19T03:54:07.066Z,24.46
2023-05-19T03:56:38.695Z,24.42
2023-05-19T03:59:10.011Z,24.40
2023-05-19T04:01:36.964Z,24.39
2023-05-19T04:04:04.330Z,24.39
2023-05-19T04:06:31.674Z,24.42
2023-05-19T04:08:59.593Z,24.44
2023-05-19T04:11:26.617Z,24.48
2023-05-19T04:13:53.591Z,24.44
2023-05-19T04:16:20.739Z,24.48
2023-05-19T04:18:48.108Z,24.51
2023-05-19T04:21:15.282Z,24.55
2023-05-19T04:23:42.121Z,24.56
2023-05-19T04:26:09.351Z,24.58
2023-05-19T04:28:39.478Z,24.61
2023-05-19T04:31:10.280Z,24.65
2023-05-19T04:33:38.502Z,24.69
2023-05-19T04:36:08.123Z,24.71
2023-05-19T04:38:36.504Z,24.75
2023-05-19T04:41:03.893Z,24.70
2023-05-19T04:43:34.216Z,24.73
2023-05-19T04:46:01.698Z,24.69
2023-05-19T04:48:30.513Z,24.71
2023-05-19T04:50:58.051Z,24.75
2023-05-19T04:53:25.406Z,24.74
2023-05-19T04:55:52.334Z,24.73
2023-05-19T04:58:19.434Z,24.76
2023-05-19T05:00:48.476Z,24.80
2023-05-19T05:03:15.944Z,24.81
2023-05-19T05:05:42.988Z,24.84
2023-05-19T05:08:11.316Z,24.76
2023-05-19T05:10:42.078Z,24.79
2023-05-19T05:13:11.609Z,24.82
2023-05-19T05:15:39.577Z,24.86
2023-05-19T05:18:07.187Z,24.84
2023-05-19T05:20:35.316Z,24.84
2023-05-19T05:23:02.894Z,24.79
2023-05-19T05:25:31.338Z,24.79
2023-05-19T05:27:59.481Z,24.78
2023-05-19T05:30:30.425Z,24.79
2023-05-19T05:32:58.727Z,24.81
2023-05-19T05:35:37.869Z,24.81
2023-05-19T05:38:06.060Z,24.90
2023-05-19T05:40:33.067Z,24.92
2023-05-19T05:43:00.190Z,24.94
2023-05-19T05:45:29.193Z,24.96
2023-05-19T05:47:57.119Z,24.99
2023-05-19T05:50:24.522Z,25.00
2023-05-19T05:52:52.131Z,25.00
2023-05-19T05:55:19.661Z,25.02
2023-05-19T05:57:48.433Z,25.05
2023-05-19T06:00:16.688Z,25.07
2023-05-19T06:02:46.883Z,25.10
2023-05-19T06:05:14.312Z,25.13
2023-05-19T06:07:41.701Z,25.11
2023-05-19T06:10:09.540Z,25.10
2023-05-19T06:12:40.380Z,25.14
2023-05-19T06:15:07.891Z,25.22
2023-05-19T06:17:50.393Z,25.22
2023-05-19T06:20:17.755Z,25.27
2023-05-19T06:22:45.031Z,25.28
2023-05-19T06:25:13.430Z,25.33
2023-05-19T06:27:40.851Z,25.40
2023-05-19T06:30:09.137Z,25.43
2023-05-19T06:32:45.632Z,25.47
2023-05-19T06:35:12.913Z,25.48
2023-05-19T06:37:39.839Z,25.50
2023-05-19T06:40:07.913Z,25.54
2023-05-19T06:42:34.967Z,25.54
2023-05-19T06:45:15.375Z,25.59
2023-05-19T06:47:43.944Z,25.59
2023-05-19T06:50:11.399Z,25.62
2023-05-19T06:52:40.694Z,25.63
2023-05-19T06:55:07.799Z,25.64
2023-05-19T06:57:36.279Z,25.65
2023-05-19T07:00:05.362Z,25.66
2023-05-19T07:02:33.022Z,25.68
2023-05-19T07:05:00.185Z,25.70
2023-05-19T07:07:27.611Z,25.75
2023-05-19T07:09:55.787Z,25.80
2023-05-19T07:12:26.031Z,25.80
2023-05-19T07:14:54.184Z,25.84
2023-05-19T07:17:21.190Z,25.89
2023-05-19T07:19:48.357Z,25.92
2023-05-19T07:22:15.766Z,25.98
2023-05-19T07:24:42.738Z,26.07
2023-05-19T07:27:09.713Z,26.13
2023-05-19T07:29:37.068Z,26.20
2023-05-19T07:32:04.465Z,26.27
2023-05-19T07:34:31.552Z,26.35
2023-05-19T07:36:58.555Z,26.40
2023-05-19T07:39:28.986Z,26.47
2023-05-19T07:41:56.596Z,26.55
2023-05-19T07:44:23.517Z,26.62
2023-05-19T07:46:50.642Z,26.69
2023-05-19T07:49:17.593Z,26.73
2023-05-19T07:51:44.890Z,26.80
2023-05-19T07:54:11.994Z,26.86
2023-05-19T07:56:38.908Z,26.93
2023-05-19T07:59:07.526Z,27.03
2023-05-19T08:01:35.140Z,27.12
2023-05-19T08:04:02.325Z,27.21
2023-05-19T08:06:29.700Z,27.27
2023-05-19T08:08:56.610Z,27.34
2023-05-19T08:11:23.620Z,27.33
2023-05-19T08:13:51.284Z,27.40
2023-05-19T08:16:18.296Z,27.54
2023-05-19T08:18:45.613Z,27.73
2023-05-19T08:21:14.125Z,27.97
2023-05-19T08:23:41.561Z,28.24
2023-05-19T08:26:08.483Z,28.49
2023-05-19T08:28:35.689Z,28.71
2023-05-19T08:31:02.623Z,28.86
2023-05-19T08:33:29.711Z,29.01
2023-05-19T08:35:57.763Z,29.12
2023-05-19T08:38:25.890Z,29.21
2023-05-19T08:40:53.045Z,29.26
2023-05-19T08:43:20.086Z,29.23
2023-05-19T08:45:47.723Z,29.26
2023-05-19T08:48:16.540Z,29.32
2023-05-19T08:51:04.990Z,29.43
2023-05-19T08:53:43.538Z,29.56
2023-05-19T08:56:12.406Z,29.71
2023-05-19T08:58:40.910Z,29.86
2023-05-19T09:01:07.849Z,29.93
2023-05-19T09:03:38.742Z,30.03
2023-05-19T09:06:09.119Z,30.12
2023-05-19T09:08:36.842Z,30.18
2023-05-19T09:11:04.042Z,30.26
2023-05-19T09:13:31.212Z,30.41
2023-05-19T09:15:58.067Z,30.54
2023-05-19T09:18:26.086Z,30.66
2023-05-19T09:21:01.745Z,30.73
2023-05-19T09:23:35.603Z,30.79
2023-05-19T09:26:03.903Z,30.79
2023-05-19T09:28:32.694Z,30.80
2023-05-19T09:31:03.564Z,30.81
2023-05-19T09:33:32.813Z,30.79
2023-05-19T09:36:00.197Z,30.78
2023-05-19T09:38:27.446Z,30.77
2023-05-19T09:40:58.193Z,30.78
2023-05-19T09:43:33.122Z,30.76
2023-05-19T09:46:03.246Z,30.76
2023-05-19T09:48:30.346Z,30.69
2023-05-19T09:50:57.681Z,30.56
2023-05-19T09:53:25.060Z,30.51
2023-05-19T09:55:56.812Z,30.43
2023-05-19T09:58:24.673Z,30.33
2023-05-19T10:00:54.075Z,30.21
2023-05-19T10:03:22.775Z,30.22
2023-05-19T10:05:50.650Z,30.39
2023-05-19T10:08:17.619Z,30.50
2023-05-19T10:10:47.794Z,30.50
2023-05-19T10:13:16.021Z,30.68
2023-05-19T10:15:57.426Z,30.85
2023-05-19T10:18:27.266Z,30.90
2023-05-19T10:20:54.454Z,31.00
2023-05-19T10:23:21.807Z,31.00
2023-05-19T10:25:49.376Z,30.90
2023-05-19T10:28:16.903Z,31.00
2023-05-19T10:30:48.286Z,31.06
2023-05-19T10:33:17.000Z,31.23
2023-05-19T10:35:56.433Z,31.26
2023-05-19T10:38:56.508Z,31.40
2023-05-19T10:41:46.931Z,31.61
2023-05-19T10:44:32.684Z,31.73
2023-05-19T10:46:59.570Z,31.74
2023-05-19T10:49:26.476Z,31.72
2023-05-19T10:51:55.973Z,31.68
2023-05-19T10:54:42.783Z,31.59
2023-05-19T10:57:14.547Z,31.58
2023-05-19T10:59:41.571Z,31.57
2023-05-19T11:02:08.733Z,31.46
2023-05-19T11:04:48.873Z,31.37
2023-05-19T11:07:19.337Z,31.38
2023-05-19T11:09:52.432Z,31.30
2023-05-19T11:12:24.649Z,31.21
2023-05-19T11:14:53.593Z,31.21
2023-05-19T11:17:23.229Z,31.28
2023-05-19T11:19:54.147Z,31.36
2023-05-19T11:22:25.460Z,31.35
2023-05-19T11:26:44.779Z,30.57
2023-05-19T11:29:12.124Z,31.40
2023-05-19T11:31:39.379Z,31.52
2023-05-19T11:34:07.563Z,31.59
2023-05-19T11:36:36.559Z,31.66
2023-05-19T11:39:03.972Z,31.55
2023-05-19T11:41:31.464Z,31.56
2023-05-19T11:43:58.683Z,31.74
2023-05-19T11:46:25.875Z,31.77
2023-05-19T11:48:54.223Z,31.74
2023-05-19T11:51:22.010Z,31.78
2023-05-19T11:53:49.877Z,31.83
2023-05-19T11:56:17.180Z,31.84
2023-05-19T11:58:44.439Z,31.76
2023-05-19T12:01:11.537Z,31.81
2023-05-19T12:03:38.956Z,31.92
2023-05-19T12:06:08.563Z,31.86
2023-05-19T12:08:36.659Z,31.82
2023-05-19T12:11:04.070Z,31.78
2023-05-19T12:13:31.365Z,31.80
2023-05-19T12:16:02.159Z,31.88
2023-05-19T12:18:31.101Z,31.95
2023-05-19T12:20:58.152Z,31.91
2023-05-19T12:23:25.362Z,31.91
2023-05-19T12:25:52.821Z,31.86
2023-05-19T12:28:20.041Z,31.70
2023-05-19T12:30:48.371Z,31.57
2023-05-19T12:33:16.389Z,31.41
2023-05-19T12:35:43.599Z,31.53
2023-05-19T12:38:10.754Z,31.60
2023-05-19T12:40:42.557Z,31.57
2023-05-19T12:43:19.339Z,31.42
2023-05-19T12:45:46.763Z,31.37
2023-05-19T12:48:16.951Z,31.35
2023-05-19T12:50:45.213Z,31.42
2023-05-19T12:53:13.205Z,31.46
2023-05-19T12:55:42.434Z,31.52
2023-05-19T12:58:09.962Z,31.43
2023-05-19T13:00:47.951Z,31.33
2023-05-19T13:03:16.768Z,31.37
2023-05-19T13:05:46.806Z,31.43
2023-05-19T13:08:15.652Z,31.45
2023-05-19T13:10:45.852Z,31.54
2023-05-19T13:13:13.155Z,31.59
2023-05-19T13:15:49.070Z,31.61
2023-05-19T13:18:16.686Z,31.72
2023-05-19T13:20:44.632Z,31.63
2023-05-19T13:23:12.157Z,31.60
2023-05-19T13:25:39.397Z,31.64
2023-05-19T13:28:06.863Z,31.63
2023-05-19T13:30:35.411Z,31.50
2023-05-19T13:33:03.036Z,31.50
2023-05-19T13:35:30.953Z,31.56
2023-05-19T13:37:58.445Z,31.64
2023-05-19T13:40:28.347Z,31.71
2023-05-19T13:42:55.620Z,31.67
2023-05-19T13:45:22.768Z,31.59
2023-05-19T13:47:49.906Z,31.56
2023-05-19T13:50:17.130Z,31.54
2023-05-19T13:52:45.226Z,31.57
2023-05-19T13:55:12.378Z,31.58
2023-05-19T13:57:40.050Z,31.48
2023-05-19T14:00:10.418Z,31.50
2023-05-19T14:02:40.793Z,31.52
2023-05-19T14:05:08.264Z,31.55
2023-05-19T14:07:35.970Z,31.56
2023-05-19T14:10:04.167Z,31.57
2023-05-19T14:12:39.753Z,31.59
2023-05-19T14:15:15.140Z,31.58
2023-05-19T14:17:42.374Z,31.51
2023-05-19T14:20:10.158Z,31.42
2023-05-19T14:22:37.286Z,31.30
2023-05-19T14:25:04.572Z,31.26
2023-05-19T14:27:31.804Z,31.24
2023-05-19T14:29:59.029Z,31.18
2023-05-19T14:32:27.993Z,31.09
2023-05-19T14:34:57.296Z,31.08
2023-05-19T14:37:26.751Z,31.03
2023-05-19T14:39:54.019Z,30.96
2023-05-19T14:42:21.081Z,31.03
2023-05-19T14:44:48.264Z,31.06
2023-05-19T14:47:15.451Z,31.09
2023-05-19T14:49:42.685Z,31.02
2023-05-19T14:52:10.104Z,30.88
2023-05-19T14:54:37.200Z,30.75
2023-05-19T14:57:04.694Z,30.62
2023-05-19T14:59:32.027Z,30.46
2023-05-19T15:01:59.133Z,30.36
2023-05-19T15:04:26.568Z,30.37
2023-05-19T15:07:05.843Z,30.40
2023-05-19T15:09:36.717Z,30.47
2023-05-19T15:12:04.288Z,30.41
2023-05-19T15:14:31.724Z,30.26
2023-05-19T15:16:59.267Z,30.17
2023-05-19T15:19:26.883Z,30.09
2023-05-19T15:21:54.241Z,29.98
2023-05-19T15:24:21.391Z,29.85
2023-05-19T15:26:48.847Z,29.91
2023-05-19T15:29:16.006Z,29.97
2023-05-19T15:31:43.247Z,29.96
2023-05-19T15:34:10.948Z,29.87
2023-05-19T15:36:38.059Z,29.84
2023-05-19T15:39:06.734Z,29.86
2023-05-19T15:41:33.937Z,29.87
2023-05-19T15:44:02.395Z,29.87
2023-05-19T15:46:29.904Z,29.79
2023-05-19T15:48:57.241Z,29.72
2023-05-19T15:51:24.858Z,29.67
2023-05-19T15:53:52.109Z,29.59
2023-05-19T15:56:22.701Z,29.67
2023-05-19T15:58:50.015Z,29.67
2023-05-19T16:01:17.152Z,29.58
2023-05-19T16:03:45.945Z,29.43
2023-05-19T16:06:13.337Z,29.35
2023-05-19T16:08:40.498Z,29.32
2023-05-19T16:11:07.724Z,29.34
2023-05-19T16:13:34.855Z,29.27
2023-05-19T16:16:02.324Z,29.21
2023-05-19T16:18:29.598Z,29.06
2023-05-19T16:20:56.798Z,29.03
2023-05-19T16:23:24.941Z,28.88
2023-05-19T16:25:52.563Z,28.69
2023-05-19T16:28:20.965Z,28.51
2023-05-19T16:30:49.047Z,28.26
2023-05-19T16:33:16.333Z,28.08
2023-05-19T16:35:43.432Z,28.02
2023-05-19T16:38:10.571Z,27.92
2023-05-19T16:40:38.418Z,27.88
2023-05-19T16:43:05.569Z,27.81
2023-05-19T16:45:32.775Z,27.68
2023-05-19T16:48:00.020Z,27.52
2023-05-19T16:50:27.151Z,27.40
2023-05-19T16:52:54.435Z,27.30
2023-05-19T16:55:23.050Z,27.21
2023-05-19T16:57:50.206Z,27.16
2023-05-19T17:00:17.398Z,27.13
2023-05-19T17:02:44.654Z,27.08
2023-05-19T17:05:11.992Z,27.04
2023-05-19T17:07:39.069Z,26.94
2023-05-19T17:10:06.736Z,26.81
2023-05-19T17:12:33.811Z,26.70
2023-05-19T17:15:00.917Z,26.63
2023-05-19T17:17:28.308Z,26.57
2023-05-19T17:19:55.436Z,26.51
2023-05-19T17:22:22.793Z,26.39
2023-05-19T17:24:49.817Z,26.31
2023-05-19T17:27:16.948Z,26.30
2023-05-19T17:29:44.286Z,26.24
2023-05-19T17:32:11.720Z,26.23
2023-05-19T17:34:39.425Z,26.17
2023-05-19T17:37:06.574Z,26.14
2023-05-19T17:39:34.131Z,26.10
2023-05-19T17:42:02.013Z,26.01
2023-05-19T17:44:28.981Z,25.94
2023-05-19T17:46:56.514Z,25.89
2023-05-19T17:49:25.830Z,25.82
2023-05-19T17:51:53.408Z,25.76
2023-05-19T17:54:22.327Z,25.72
2023-05-19T17:56:49.401Z,25.65
2023-05-19T17:59:16.813Z,25.54
2023-05-19T18:01:44.402Z,25.44
2023-05-19T18:04:13.215Z,25.36
2023-05-19T18:06:41.957Z,25.31
2023-05-19T18:09:09.391Z,25.25
2023-05-19T18:11:36.500Z,25.24
2023-05-19T18:14:03.700Z,25.20
2023-05-19T18:16:31.074Z,25.12
2023-05-19T18:18:58.714Z,25.01
2023-05-19T18:21:26.969Z,24.96
2023-05-19T18:23:54.132Z,24.94
2023-05-19T18:26:21.669Z,24.88
2023-05-19T18:28:48.805Z,24.79
2023-05-19T18:31:19.609Z,24.75
2023-05-19T18:33:47.324Z,24.69
2023-05-19T18:36:16.705Z,24.64
2023-05-19T18:38:44.028Z,24.57
2023-05-19T18:41:11.217Z,24.52
2023-05-19T18:43:39.117Z,24.49
2023-05-19T18:46:06.463Z,24.47
2023-05-19T18:48:33.584Z,24.42
2023-05-19T18:51:00.723Z,24.34
2023-05-19T18:53:27.982Z,24.36
2023-05-19T18:55:55.317Z,24.36
2023-05-19T18:58:22.472Z,24.31
2023-05-19T19:00:50.532Z,24.25
2023-05-19T19:03:17.790Z,24.24
2023-05-19T19:05:46.406Z,24.22
2023-05-19T19:08:13.904Z,24.19
2023-05-19T19:10:42.628Z,24.18
2023-05-19T19:13:09.711Z,24.10
2023-05-19T19:15:36.916Z,24.00
2023-05-19T19:18:05.440Z,23.93
2023-05-19T19:20:33.695Z,23.86
2023-05-19T19:23:03.252Z,23.72
2023-05-19T19:25:30.331Z,23.66
2023-05-19T19:27:57.378Z,23.68
2023-05-19T19:30:25.452Z,23.66
2023-05-19T19:32:53.267Z,23.63
2023-05-19T19:35:21.098Z,23.59
2023-05-19T19:37:48.244Z,23.57
2023-05-19T19:40:15.326Z,23.53
2023-05-19T19:42:42.544Z,23.46
2023-05-19T19:45:12.107Z,23.38
2023-05-19T19:47:41.139Z,23.37
2023-05-19T19:50:09.311Z,23.35
2023-05-19T19:52:37.143Z,23.34
2023-05-19T19:55:04.647Z,23.31
2023-05-19T19:57:34.411Z,23.23
2023-05-19T20:00:08.136Z,23.20
2023-05-19T20:02:41.020Z,23.19
2023-05-19T20:05:14.235Z,23.23
2023-05-19T20:07:41.716Z,23.23
2023-05-19T20:10:09.171Z,23.18
2023-05-19T20:12:36.251Z,23.13
2023-05-19T20:15:03.291Z,23.11
2023-05-19T20:17:30.663Z,23.10
2023-05-19T20:19:59.176Z,23.08
2023-05-19T20:22:26.423Z,23.08
2023-05-19T20:24:53.421Z,23.07
2023-05-19T20:27:20.763Z,23.08
2023-05-19T20:29:47.831Z,23.05
2023-05-19T20:32:15.058Z,23.04
2023-05-19T20:34:42.337Z,23.04
2023-05-19T20:37:09.440Z,23.01
2023-05-19T20:39:36.693Z,23.02
2023-05-19T20:42:03.823Z,22.99
2023-05-19T20:44:31.132Z,22.93
2023-05-19T20:46:58.171Z,22.89
2023-05-19T20:49:25.456Z,22.89
2023-05-19T20:51:52.507Z,22.88
2023-05-19T20:54:20.429Z,22.86
2023-05-19T20:56:48.057Z,22.83
2023-05-19T20:59:15.088Z,22.83
2023-05-19T21:01:42.483Z,22.82
2023-05-19T21:04:09.775Z,22.80
2023-05-19T21:06:36.938Z,22.76
2023-05-19T21:09:06.954Z,22.68
2023-05-19T21:11:34.629Z,22.67
2023-05-19T21:14:04.876Z,22.66
2023-05-19T21:16:32.328Z,22.66
2023-05-19T21:19:00.052Z,22.65
2023-05-19T21:21:27.569Z,22.64
2023-05-19T21:23:54.558Z,22.63
2023-05-19T21:26:22.315Z,22.63
2023-05-19T21:28:49.437Z,22.58
2023-05-19T21:31:16.741Z,22.53
2023-05-19T21:33:44.271Z,22.50
2023-05-19T21:36:11.414Z,22.48
2023-05-19T21:38:38.443Z,22.48
2023-05-19T21:41:05.588Z,22.50
2023-05-19T21:43:32.822Z,22.51
2023-05-19T21:46:00.103Z,22.50
2023-05-19T21:48:27.351Z,22.52
2023-05-19T21:50:55.220Z,22.49
2023-05-19T21:53:22.215Z,22.46
2023-05-19T21:55:49.422Z,22.49
2023-05-19T21:58:16.726Z,22.43
2023-05-19T22:00:49.257Z,22.43
2023-05-19T22:03:16.571Z,22.43
2023-05-19T22:05:52.372Z,22.44
2023-05-19T22:08:20.134Z,22.44
2023-05-19T22:10:51.225Z,22.41
2023-05-19T22:13:21.989Z,22.41
2023-05-19T22:15:49.456Z,22.41
2023-05-19T22:18:17.061Z,22.43
2023-05-19T22:20:44.676Z,22.42
2023-05-19T22:23:11.722Z,22.40
2023-05-19T22:25:38.942Z,22.42
2023-05-19T22:28:08.119Z,22.43
2023-05-19T22:30:41.113Z,22.42
2023-05-19T22:33:09.130Z,22.41
2023-05-19T22:35:36.237Z,22.38
2023-05-19T22:38:03.348Z,22.41
2023-05-19T22:40:30.972Z,22.41
2023-05-19T22:42:58.065Z,22.43
2023-05-19T22:45:25.716Z,22.45
2023-05-19T22:47:55.224Z,22.48
2023-05-19T22:50:22.533Z,22.49
2023-05-19T22:52:49.700Z,22.48
2023-05-19T22:55:16.849Z,22.50
2023-05-19T22:57:44.192Z,22.47
2023-05-19T23:00:14.370Z,22.44
2023-05-19T23:02:42.060Z,22.43
2023-05-19T23:05:09.443Z,22.45
2023-05-19T23:07:36.546Z,22.46
2023-05-19T23:10:06.187Z,22.49
2023-05-19T23:12:33.634Z,22.45
2023-05-19T23:15:00.931Z,22.43
2023-05-19T23:17:28.109Z,22.44
2023-05-19T23:19:55.887Z,22.46
2023-05-19T23:22:23.106Z,22.48
2023-05-19T23:24:50.184Z,22.50
2023-05-19T23:27:17.210Z,22.55
2023-05-19T23:29:50.852Z,22.55
2023-05-19T23:32:18.078Z,22.59
2023-05-19T23:34:47.449Z,22.57
2023-05-19T23:37:14.656Z,22.56
2023-05-19T23:39:41.985Z,22.57
2023-05-19T23:43:13.504Z,21.71
2023-05-19T23:45:41.123Z,22.53
2023-05-19T23:48:08.444Z,22.56
2023-05-19T23:50:35.955Z,22.55
2023-05-19T23:53:03.030Z,22.55
2023-05-19T23:55:30.271Z,22.51
2023-05-19T23:57:57.517Z,22.48
